sensor_id;sensor_type;location;lat;lon;timestamp;temperature;humidity
12386;DHT22;6257;57.634;18.310;2023-08-06T00:01:56;13.60;99.90
12386;DHT22;6257;57.634;18.310;2023-08-06T00:04:23;13.60;99.90
12386;DHT22;6257;57.634;18.310;2023-08-06T00:06:50;13.60;99.90
12386;DHT22;6257;57.634;18.310;2023-08-06T00:09:17;13.60;99.90
12386;DHT22;6257;57.634;18.310;2023-08-06T00:11:44;13.60;99.90
12386;DHT22;6257;57.634;18.310;2023-08-06T00:14:12;13.70;99.90
12386;DHT22;6257;57.634;18.310;2023-08-06T00:16:43;13.70;99.90
12386;DHT22;6257;57.634;18.310;2023-08-06T00:19:10;13.70;99.90
12386;DHT22;6257;57.634;18.310;2023-08-06T00:21:37;13.70;99.90
12386;DHT22;6257;57.634;18.310;2023-08-06T00:24:04;13.60;99.90
12386;DHT22;6257;57.634;18.310;2023-08-06T00:26:31;13.70;99.90
12386;DHT22;6257;57.634;18.310;2023-08-06T00:28:58;13.70;99.90
12386;DHT22;6257;57.634;18.310;2023-08-06T00:31:25;13.70;99.90
12386;DHT22;6257;57.634;18.310;2023-08-06T00:33:54;13.80;99.90
12386;DHT22;6257;57.634;18.310;2023-08-06T00:36:21;13.80;99.90
12386;DHT22;6257;57.634;18.310;2023-08-06T00:38:48;13.80;99.90
12386;DHT22;6257;57.634;18.310;2023-08-06T00:41:15;13.80;99.90
12386;DHT22;6257;57.634;18.310;2023-08-06T00:43:42;13.80;99.90
12386;DHT22;6257;57.634;18.310;2023-08-06T00:46:09;13.80;99.90
12386;DHT22;6257;57.634;18.310;2023-08-06T00:48:37;13.80;99.90
12386;DHT22;6257;57.634;18.310;2023-08-06T00:51:05;13.80;99.90
12386;DHT22;6257;57.634;18.310;2023-08-06T00:53:32;13.80;99.90
12386;DHT22;6257;57.634;18.310;2023-08-06T00:56:00;13.80;99.90
12386;DHT22;6257;57.634;18.310;2023-08-06T00:58:28;13.80;99.90
12386;DHT22;6257;57.634;18.310;2023-08-06T01:00:55;13.70;99.90
12386;DHT22;6257;57.634;18.310;2023-08-06T01:03:22;13.70;99.90
12386;DHT22;6257;57.634;18.310;2023-08-06T01:05:49;13.70;99.90
12386;DHT22;6257;57.634;18.310;2023-08-06T01:08:29;13.70;99.90
12386;DHT22;6257;57.634;18.310;2023-08-06T01:11:08;13.70;99.90
12386;DHT22;6257;57.634;18.310;2023-08-06T01:13:42;13.70;99.90
12386;DHT22;6257;57.634;18.310;2023-08-06T01:16:10;13.60;99.90
12386;DHT22;6257;57.634;18.310;2023-08-06T01:18:38;13.60;99.90
12386;DHT22;6257;57.634;18.310;2023-08-06T01:21:08;13.70;99.90
12386;DHT22;6257;57.634;18.310;2023-08-06T01:23:35;13.60;99.90
12386;DHT22;6257;57.634;18.310;2023-08-06T01:26:10;13.50;99.90
12386;DHT22;6257;57.634;18.310;2023-08-06T01:28:42;13.50;99.90
12386;DHT22;6257;57.634;18.310;2023-08-06T01:31:15;13.60;99.90
12386;DHT22;6257;57.634;18.310;2023-08-06T01:33:47;13.60;99.90
12386;DHT22;6257;57.634;18.310;2023-08-06T01:36:17;13.50;99.90
12386;DHT22;6257;57.634;18.310;2023-08-06T01:38:44;13.50;99.90
12386;DHT22;6257;57.634;18.310;2023-08-06T01:41:11;13.50;99.90
12386;DHT22;6257;57.634;18.310;2023-08-06T01:43:38;13.40;99.90
12386;DHT22;6257;57.634;18.310;2023-08-06T01:46:05;13.40;99.90
12386;DHT22;6257;57.634;18.310;2023-08-06T01:48:32;13.50;99.90
12386;DHT22;6257;57.634;18.310;2023-08-06T01:50:59;13.50;99.90
12386;DHT22;6257;57.634;18.310;2023-08-06T01:53:28;13.50;99.90
12386;DHT22;6257;57.634;18.310;2023-08-06T01:55:55;13.50;99.90
12386;DHT22;6257;57.634;18.310;2023-08-06T01:58:21;13.50;99.90
12386;DHT22;6257;57.634;18.310;2023-08-06T02:00:48;13.50;99.90
12386;DHT22;6257;57.634;18.310;2023-08-06T02:03:16;13.50;99.90
12386;DHT22;6257;57.634;18.310;2023-08-06T02:05:43;13.50;99.90
12386;DHT22;6257;57.634;18.310;2023-08-06T02:08:11;13.50;99.90
12386;DHT22;6257;57.634;18.310;2023-08-06T02:13:07;13.50;99.90
12386;DHT22;6257;57.634;18.310;2023-08-06T02:15:34;13.60;99.90
12386;DHT22;6257;57.634;18.310;2023-08-06T02:18:01;13.60;99.90
12386;DHT22;6257;57.634;18.310;2023-08-06T02:20:28;13.60;99.90
12386;DHT22;6257;57.634;18.310;2023-08-06T02:22:55;13.60;99.90
12386;DHT22;6257;57.634;18.310;2023-08-06T02:25:22;13.60;99.90
12386;DHT22;6257;57.634;18.310;2023-08-06T02:30:18;13.60;99.90
12386;DHT22;6257;57.634;18.310;2023-08-06T02:32:45;13.60;99.90
12386;DHT22;6257;57.634;18.310;2023-08-06T02:35:12;13.60;99.90
12386;DHT22;6257;57.634;18.310;2023-08-06T02:37:39;13.60;99.90
12386;DHT22;6257;57.634;18.310;2023-08-06T02:40:07;13.70;99.90
12386;DHT22;6257;57.634;18.310;2023-08-06T02:42:34;13.70;99.90
12386;DHT22;6257;57.634;18.310;2023-08-06T02:45:03;13.70;99.90
12386;DHT22;6257;57.634;18.310;2023-08-06T02:47:30;13.80;99.90
12386;DHT22;6257;57.634;18.310;2023-08-06T02:49:58;13.80;99.90
12386;DHT22;6257;57.634;18.310;2023-08-06T02:52:25;13.80;99.90
12386;DHT22;6257;57.634;18.310;2023-08-06T02:54:52;13.80;99.90
12386;DHT22;6257;57.634;18.310;2023-08-06T02:57:19;13.70;99.90
12386;DHT22;6257;57.634;18.310;2023-08-06T02:59:46;13.70;99.90
12386;DHT22;6257;57.634;18.310;2023-08-06T03:04:41;13.70;99.90
12386;DHT22;6257;57.634;18.310;2023-08-06T03:07:08;13.70;99.90
12386;DHT22;6257;57.634;18.310;2023-08-06T03:09:35;13.70;99.90
12386;DHT22;6257;57.634;18.310;2023-08-06T03:12:03;13.80;99.90
12386;DHT22;6257;57.634;18.310;2023-08-06T03:14:30;13.80;99.90
12386;DHT22;6257;57.634;18.310;2023-08-06T03:16:57;13.80;99.90
12386;DHT22;6257;57.634;18.310;2023-08-06T03:21:53;13.90;99.90
12386;DHT22;6257;57.634;18.310;2023-08-06T03:24:20;13.90;99.90
12386;DHT22;6257;57.634;18.310;2023-08-06T03:26:47;13.90;99.90
12386;DHT22;6257;57.634;18.310;2023-08-06T03:29:14;13.90;99.90
12386;DHT22;6257;57.634;18.310;2023-08-06T03:31:41;13.90;99.90
12386;DHT22;6257;57.634;18.310;2023-08-06T03:34:08;13.90;99.90
12386;DHT22;6257;57.634;18.310;2023-08-06T03:36:36;13.90;99.90
12386;DHT22;6257;57.634;18.310;2023-08-06T03:39:03;13.90;99.90
12386;DHT22;6257;57.634;18.310;2023-08-06T03:41:30;14.00;99.90
12386;DHT22;6257;57.634;18.310;2023-08-06T03:43:57;14.00;99.90
12386;DHT22;6257;57.634;18.310;2023-08-06T03:46:26;14.10;99.90
12386;DHT22;6257;57.634;18.310;2023-08-06T03:48:53;14.10;99.90
12386;DHT22;6257;57.634;18.310;2023-08-06T03:51:20;14.20;99.90
12386;DHT22;6257;57.634;18.310;2023-08-06T03:53:48;14.20;99.90
12386;DHT22;6257;57.634;18.310;2023-08-06T03:56:15;14.30;99.90
12386;DHT22;6257;57.634;18.310;2023-08-06T03:58:42;14.30;99.90
12386;DHT22;6257;57.634;18.310;2023-08-06T04:01:09;14.40;99.90
12386;DHT22;6257;57.634;18.310;2023-08-06T04:03:36;14.40;99.90
12386;DHT22;6257;57.634;18.310;2023-08-06T04:06:04;14.50;99.90
12386;DHT22;6257;57.634;18.310;2023-08-06T04:08:31;14.50;99.90
12386;DHT22;6257;57.634;18.310;2023-08-06T04:10:59;14.50;99.90
12386;DHT22;6257;57.634;18.310;2023-08-06T04:13:26;14.60;99.90
12386;DHT22;6257;57.634;18.310;2023-08-06T04:15:53;14.70;99.90
12386;DHT22;6257;57.634;18.310;2023-08-06T04:18:21;14.70;99.90
12386;DHT22;6257;57.634;18.310;2023-08-06T04:20:48;14.80;99.90
12386;DHT22;6257;57.634;18.310;2023-08-06T04:23:18;14.80;99.90
12386;DHT22;6257;57.634;18.310;2023-08-06T04:25:45;14.90;99.90
12386;DHT22;6257;57.634;18.310;2023-08-06T04:28:13;14.90;99.90
12386;DHT22;6257;57.634;18.310;2023-08-06T04:30:40;15.00;99.90
12386;DHT22;6257;57.634;18.310;2023-08-06T04:33:07;15.00;99.90
12386;DHT22;6257;57.634;18.310;2023-08-06T04:35:34;15.10;99.90
12386;DHT22;6257;57.634;18.310;2023-08-06T04:38:01;15.10;99.90
12386;DHT22;6257;57.634;18.310;2023-08-06T04:40:28;15.20;99.90
12386;DHT22;6257;57.634;18.310;2023-08-06T04:42:55;15.30;99.90
12386;DHT22;6257;57.634;18.310;2023-08-06T04:47:52;15.30;99.90
12386;DHT22;6257;57.634;18.310;2023-08-06T04:50:19;15.20;99.90
12386;DHT22;6257;57.634;18.310;2023-08-06T04:52:46;15.30;99.90
12386;DHT22;6257;57.634;18.310;2023-08-06T04:55:13;15.30;99.90
12386;DHT22;6257;57.634;18.310;2023-08-06T04:57:40;15.30;99.90
12386;DHT22;6257;57.634;18.310;2023-08-06T05:00:08;15.40;99.90
12386;DHT22;6257;57.634;18.310;2023-08-06T05:02:36;15.40;99.90
12386;DHT22;6257;57.634;18.310;2023-08-06T05:05:04;15.40;99.90
12386;DHT22;6257;57.634;18.310;2023-08-06T05:07:31;15.40;99.90
12386;DHT22;6257;57.634;18.310;2023-08-06T05:09:58;15.40;99.90
12386;DHT22;6257;57.634;18.310;2023-08-06T05:12:25;15.50;99.90
12386;DHT22;6257;57.634;18.310;2023-08-06T05:14:52;15.50;99.90
12386;DHT22;6257;57.634;18.310;2023-08-06T05:17:19;15.50;99.90
12386;DHT22;6257;57.634;18.310;2023-08-06T05:22:17;15.50;99.90
12386;DHT22;6257;57.634;18.310;2023-08-06T05:24:44;15.60;99.90
12386;DHT22;6257;57.634;18.310;2023-08-06T05:27:11;15.60;99.90
12386;DHT22;6257;57.634;18.310;2023-08-06T05:29:38;15.60;99.90
12386;DHT22;6257;57.634;18.310;2023-08-06T05:32:05;15.70;99.90
12386;DHT22;6257;57.634;18.310;2023-08-06T05:34:33;15.70;99.90
12386;DHT22;6257;57.634;18.310;2023-08-06T05:37:01;15.70;99.90
12386;DHT22;6257;57.634;18.310;2023-08-06T05:39:28;15.70;99.90
12386;DHT22;6257;57.634;18.310;2023-08-06T05:41:55;15.70;99.90
12386;DHT22;6257;57.634;18.310;2023-08-06T05:46:51;15.60;99.90
12386;DHT22;6257;57.634;18.310;2023-08-06T05:49:19;15.60;99.90
12386;DHT22;6257;57.634;18.310;2023-08-06T05:51:46;15.70;99.90
12386;DHT22;6257;57.634;18.310;2023-08-06T05:59:08;15.60;99.90
12386;DHT22;6257;57.634;18.310;2023-08-06T06:01:35;15.60;99.90
12386;DHT22;6257;57.634;18.310;2023-08-06T06:04:02;15.60;99.90
12386;DHT22;6257;57.634;18.310;2023-08-06T06:06:29;15.70;99.90
12386;DHT22;6257;57.634;18.310;2023-08-06T06:08:56;15.80;99.90
12386;DHT22;6257;57.634;18.310;2023-08-06T06:11:25;15.90;99.90
12386;DHT22;6257;57.634;18.310;2023-08-06T06:13:52;16.00;99.90
12386;DHT22;6257;57.634;18.310;2023-08-06T06:16:19;16.20;99.90
12386;DHT22;6257;57.634;18.310;2023-08-06T06:18:46;16.40;99.90
12386;DHT22;6257;57.634;18.310;2023-08-06T06:21:13;16.50;99.90
12386;DHT22;6257;57.634;18.310;2023-08-06T06:23:40;16.50;99.90
12386;DHT22;6257;57.634;18.310;2023-08-06T06:26:07;16.50;99.90
12386;DHT22;6257;57.634;18.310;2023-08-06T06:28:35;16.50;99.90
12386;DHT22;6257;57.634;18.310;2023-08-06T06:31:02;16.50;99.90
12386;DHT22;6257;57.634;18.310;2023-08-06T06:33:29;16.50;99.90
12386;DHT22;6257;57.634;18.310;2023-08-06T06:35:56;16.40;99.90
12386;DHT22;6257;57.634;18.310;2023-08-06T06:38:23;16.30;99.90
12386;DHT22;6257;57.634;18.310;2023-08-06T06:40:54;16.40;99.90
12386;DHT22;6257;57.634;18.310;2023-08-06T06:43:20;16.30;99.90
12386;DHT22;6257;57.634;18.310;2023-08-06T06:45:52;16.30;99.90
12386;DHT22;6257;57.634;18.310;2023-08-06T06:48:19;16.30;99.90
12386;DHT22;6257;57.634;18.310;2023-08-06T06:50:47;16.30;99.90
12386;DHT22;6257;57.634;18.310;2023-08-06T06:53:14;16.20;99.90
12386;DHT22;6257;57.634;18.310;2023-08-06T06:55:41;16.20;99.90
12386;DHT22;6257;57.634;18.310;2023-08-06T06:58:08;16.10;99.90
12386;DHT22;6257;57.634;18.310;2023-08-06T07:00:36;16.10;99.90
12386;DHT22;6257;57.634;18.310;2023-08-06T07:05:32;16.00;99.90
12386;DHT22;6257;57.634;18.310;2023-08-06T07:07:59;16.00;99.90
12386;DHT22;6257;57.634;18.310;2023-08-06T07:10:26;16.00;99.90
12386;DHT22;6257;57.634;18.310;2023-08-06T07:12:53;15.00;99.90
12386;DHT22;6257;57.634;18.310;2023-08-06T07:15:21;15.80;99.90
12386;DHT22;6257;57.634;18.310;2023-08-06T07:17:48;15.70;99.90
12386;DHT22;6257;57.634;18.310;2023-08-06T07:20:16;15.70;99.90
12386;DHT22;6257;57.634;18.310;2023-08-06T07:22:44;15.60;99.90
12386;DHT22;6257;57.634;18.310;2023-08-06T07:25:11;15.60;99.90
12386;DHT22;6257;57.634;18.310;2023-08-06T07:27:38;15.50;99.90
12386;DHT22;6257;57.634;18.310;2023-08-06T07:30:06;15.50;99.90
12386;DHT22;6257;57.634;18.310;2023-08-06T07:32:33;15.50;99.90
12386;DHT22;6257;57.634;18.310;2023-08-06T07:35:00;15.50;99.90
12386;DHT22;6257;57.634;18.310;2023-08-06T07:37:30;15.50;99.90
12386;DHT22;6257;57.634;18.310;2023-08-06T07:39:57;15.50;99.90
12386;DHT22;6257;57.634;18.310;2023-08-06T07:42:24;15.50;99.90
12386;DHT22;6257;57.634;18.310;2023-08-06T07:44:53;15.50;99.90
12386;DHT22;6257;57.634;18.310;2023-08-06T07:47:21;15.50;99.90
12386;DHT22;6257;57.634;18.310;2023-08-06T07:49:48;15.50;99.90
12386;DHT22;6257;57.634;18.310;2023-08-06T07:52:15;15.60;99.90
12386;DHT22;6257;57.634;18.310;2023-08-06T07:54:43;15.60;99.90
12386;DHT22;6257;57.634;18.310;2023-08-06T07:57:10;15.60;99.90
12386;DHT22;6257;57.634;18.310;2023-08-06T07:59:39;15.60;99.90
12386;DHT22;6257;57.634;18.310;2023-08-06T08:02:06;15.60;99.90
12386;DHT22;6257;57.634;18.310;2023-08-06T08:04:33;15.60;99.90
12386;DHT22;6257;57.634;18.310;2023-08-06T08:07:00;15.60;99.90
12386;DHT22;6257;57.634;18.310;2023-08-06T08:09:27;15.70;99.90
12386;DHT22;6257;57.634;18.310;2023-08-06T08:14:24;15.70;99.90
12386;DHT22;6257;57.634;18.310;2023-08-06T08:16:51;15.80;99.90
12386;DHT22;6257;57.634;18.310;2023-08-06T08:19:18;15.80;99.90
12386;DHT22;6257;57.634;18.310;2023-08-06T08:21:45;15.80;99.90
12386;DHT22;6257;57.634;18.310;2023-08-06T08:24:12;15.90;99.90
12386;DHT22;6257;57.634;18.310;2023-08-06T08:26:39;15.90;99.90
12386;DHT22;6257;57.634;18.310;2023-08-06T08:31:35;16.10;99.90
12386;DHT22;6257;57.634;18.310;2023-08-06T08:34:05;16.10;99.90
12386;DHT22;6257;57.634;18.310;2023-08-06T08:36:32;16.10;99.90
12386;DHT22;6257;57.634;18.310;2023-08-06T08:38:59;16.20;99.90
12386;DHT22;6257;57.634;18.310;2023-08-06T08:41:28;16.20;99.90
12386;DHT22;6257;57.634;18.310;2023-08-06T08:43:56;16.30;99.90
12386;DHT22;6257;57.634;18.310;2023-08-06T08:46:27;16.30;99.90
12386;DHT22;6257;57.634;18.310;2023-08-06T08:48:56;16.30;99.90
12386;DHT22;6257;57.634;18.310;2023-08-06T08:51:24;16.30;99.90
12386;DHT22;6257;57.634;18.310;2023-08-06T08:53:53;16.40;99.90
12386;DHT22;6257;57.634;18.310;2023-08-06T08:56:22;16.30;99.90
12386;DHT22;6257;57.634;18.310;2023-08-06T08:58:49;16.30;99.90
12386;DHT22;6257;57.634;18.310;2023-08-06T09:01:17;16.30;99.90
12386;DHT22;6257;57.634;18.310;2023-08-06T09:03:46;16.30;99.90
12386;DHT22;6257;57.634;18.310;2023-08-06T09:06:15;16.30;99.90
12386;DHT22;6257;57.634;18.310;2023-08-06T09:08:51;16.30;99.90
12386;DHT22;6257;57.634;18.310;2023-08-06T09:11:19;16.30;99.90
12386;DHT22;6257;57.634;18.310;2023-08-06T09:13:47;16.40;99.90
12386;DHT22;6257;57.634;18.310;2023-08-06T09:16:14;16.40;99.90
12386;DHT22;6257;57.634;18.310;2023-08-06T09:18:41;16.50;99.90
12386;DHT22;6257;57.634;18.310;2023-08-06T09:21:15;16.50;99.90
12386;DHT22;6257;57.634;18.310;2023-08-06T09:23:42;16.50;99.90
12386;DHT22;6257;57.634;18.310;2023-08-06T09:26:11;16.50;99.90
12386;DHT22;6257;57.634;18.310;2023-08-06T09:28:39;16.50;99.90
12386;DHT22;6257;57.634;18.310;2023-08-06T09:31:09;16.50;99.90
12386;DHT22;6257;57.634;18.310;2023-08-06T09:33:37;16.60;99.90
12386;DHT22;6257;57.634;18.310;2023-08-06T09:36:08;16.60;99.90
12386;DHT22;6257;57.634;18.310;2023-08-06T09:38:39;16.70;99.90
12386;DHT22;6257;57.634;18.310;2023-08-06T09:41:06;16.70;99.90
12386;DHT22;6257;57.634;18.310;2023-08-06T09:43:41;16.70;99.90
12386;DHT22;6257;57.634;18.310;2023-08-06T09:46:12;16.70;99.90
12386;DHT22;6257;57.634;18.310;2023-08-06T09:48:45;16.70;99.90
12386;DHT22;6257;57.634;18.310;2023-08-06T09:51:13;16.70;99.90
12386;DHT22;6257;57.634;18.310;2023-08-06T09:53:42;16.70;99.90
12386;DHT22;6257;57.634;18.310;2023-08-06T09:56:11;16.70;99.90
12386;DHT22;6257;57.634;18.310;2023-08-06T09:58:39;16.70;99.90
12386;DHT22;6257;57.634;18.310;2023-08-06T10:01:07;16.70;99.90
12386;DHT22;6257;57.634;18.310;2023-08-06T10:03:35;16.70;99.90
12386;DHT22;6257;57.634;18.310;2023-08-06T10:06:04;16.70;99.90
12386;DHT22;6257;57.634;18.310;2023-08-06T10:08:34;16.70;99.90
12386;DHT22;6257;57.634;18.310;2023-08-06T10:11:03;16.80;99.90
12386;DHT22;6257;57.634;18.310;2023-08-06T10:13:32;16.80;99.90
12386;DHT22;6257;57.634;18.310;2023-08-06T10:16:01;16.80;99.90
12386;DHT22;6257;57.634;18.310;2023-08-06T10:18:29;16.80;99.90
12386;DHT22;6257;57.634;18.310;2023-08-06T10:20:56;16.80;99.90
12386;DHT22;6257;57.634;18.310;2023-08-06T10:23:33;16.80;99.90
12386;DHT22;6257;57.634;18.310;2023-08-06T10:26:02;16.80;99.90
12386;DHT22;6257;57.634;18.310;2023-08-06T10:28:34;16.90;99.90
12386;DHT22;6257;57.634;18.310;2023-08-06T10:31:02;16.90;99.90
12386;DHT22;6257;57.634;18.310;2023-08-06T10:33:41;16.90;99.90
12386;DHT22;6257;57.634;18.310;2023-08-06T10:38:44;16.90;99.90
12386;DHT22;6257;57.634;18.310;2023-08-06T10:41:28;16.90;99.90
12386;DHT22;6257;57.634;18.310;2023-08-06T10:44:05;16.90;99.90
12386;DHT22;6257;57.634;18.310;2023-08-06T10:46:34;16.90;99.90
12386;DHT22;6257;57.634;18.310;2023-08-06T10:49:01;16.90;99.90
12386;DHT22;6257;57.634;18.310;2023-08-06T10:51:29;16.90;99.90
12386;DHT22;6257;57.634;18.310;2023-08-06T10:53:56;16.90;99.90
12386;DHT22;6257;57.634;18.310;2023-08-06T10:56:26;16.90;99.90
12386;DHT22;6257;57.634;18.310;2023-08-06T10:58:55;19.80;99.90
12386;DHT22;6257;57.634;18.310;2023-08-06T11:01:22;16.90;99.90
12386;DHT22;6257;57.634;18.310;2023-08-06T11:03:50;16.90;99.90
12386;DHT22;6257;57.634;18.310;2023-08-06T11:06:19;16.90;99.90
12386;DHT22;6257;57.634;18.310;2023-08-06T11:08:51;16.90;99.90
12386;DHT22;6257;57.634;18.310;2023-08-06T11:11:19;16.90;99.90
12386;DHT22;6257;57.634;18.310;2023-08-06T11:13:49;16.90;99.90
12386;DHT22;6257;57.634;18.310;2023-08-06T11:16:18;16.90;99.90
12386;DHT22;6257;57.634;18.310;2023-08-06T11:18:46;16.90;99.90
12386;DHT22;6257;57.634;18.310;2023-08-06T11:21:13;16.90;99.90
12386;DHT22;6257;57.634;18.310;2023-08-06T11:23:41;16.90;99.90
12386;DHT22;6257;57.634;18.310;2023-08-06T11:26:08;16.90;99.90
12386;DHT22;6257;57.634;18.310;2023-08-06T11:28:35;16.90;99.90
12386;DHT22;6257;57.634;18.310;2023-08-06T11:31:03;17.00;99.90
12386;DHT22;6257;57.634;18.310;2023-08-06T11:33:31;17.00;99.90
12386;DHT22;6257;57.634;18.310;2023-08-06T11:35:59;17.00;99.90
12386;DHT22;6257;57.634;18.310;2023-08-06T11:38:28;17.00;99.90
12386;DHT22;6257;57.634;18.310;2023-08-06T11:40:56;17.00;99.90
12386;DHT22;6257;57.634;18.310;2023-08-06T11:43:24;17.00;99.90
12386;DHT22;6257;57.634;18.310;2023-08-06T11:45:51;17.10;99.90
12386;DHT22;6257;57.634;18.310;2023-08-06T11:48:21;17.10;99.90
12386;DHT22;6257;57.634;18.310;2023-08-06T11:50:48;17.10;99.90
12386;DHT22;6257;57.634;18.310;2023-08-06T11:53:15;17.10;99.90
12386;DHT22;6257;57.634;18.310;2023-08-06T11:55:43;17.10;99.90
12386;DHT22;6257;57.634;18.310;2023-08-06T11:58:11;17.20;99.90
12386;DHT22;6257;57.634;18.310;2023-08-06T12:00:39;17.20;99.90
12386;DHT22;6257;57.634;18.310;2023-08-06T12:03:06;17.20;99.90
12386;DHT22;6257;57.634;18.310;2023-08-06T12:05:34;17.30;99.90
12386;DHT22;6257;57.634;18.310;2023-08-06T12:08:04;17.30;99.90
12386;DHT22;6257;57.634;18.310;2023-08-06T12:10:31;17.30;99.90
12386;DHT22;6257;57.634;18.310;2023-08-06T12:12:59;17.30;99.90
12386;DHT22;6257;57.634;18.310;2023-08-06T12:15:26;17.40;99.90
12386;DHT22;6257;57.634;18.310;2023-08-06T12:17:53;17.40;99.90
12386;DHT22;6257;57.634;18.310;2023-08-06T12:20:20;17.50;99.90
12386;DHT22;6257;57.634;18.310;2023-08-06T12:25:16;17.60;99.90
12386;DHT22;6257;57.634;18.310;2023-08-06T12:27:44;17.60;99.90
12386;DHT22;6257;57.634;18.310;2023-08-06T12:30:12;17.60;99.90
12386;DHT22;6257;57.634;18.310;2023-08-06T12:32:39;17.50;99.90
12386;DHT22;6257;57.634;18.310;2023-08-06T12:35:07;17.60;99.90
12386;DHT22;6257;57.634;18.310;2023-08-06T12:37:34;17.50;99.90
12386;DHT22;6257;57.634;18.310;2023-08-06T12:40:04;17.60;99.90
12386;DHT22;6257;57.634;18.310;2023-08-06T12:42:31;17.60;99.90
12386;DHT22;6257;57.634;18.310;2023-08-06T12:44:58;17.70;99.90
12386;DHT22;6257;57.634;18.310;2023-08-06T12:47:25;17.70;99.90
12386;DHT22;6257;57.634;18.310;2023-08-06T12:49:53;17.70;99.90
12386;DHT22;6257;57.634;18.310;2023-08-06T12:52:20;17.70;99.90
12386;DHT22;6257;57.634;18.310;2023-08-06T12:54:47;17.80;99.90
12386;DHT22;6257;57.634;18.310;2023-08-06T12:59:43;17.80;99.90
12386;DHT22;6257;57.634;18.310;2023-08-06T13:02:10;17.80;99.90
12386;DHT22;6257;57.634;18.310;2023-08-06T13:04:37;17.80;99.90
12386;DHT22;6257;57.634;18.310;2023-08-06T13:07:05;17.80;99.90
12386;DHT22;6257;57.634;18.310;2023-08-06T13:09:33;17.80;99.90
12386;DHT22;6257;57.634;18.310;2023-08-06T13:12:00;17.80;99.90
12386;DHT22;6257;57.634;18.310;2023-08-06T13:14:33;17.80;99.90
12386;DHT22;6257;57.634;18.310;2023-08-06T13:17:00;17.80;99.90
12386;DHT22;6257;57.634;18.310;2023-08-06T13:19:28;17.80;99.90
12386;DHT22;6257;57.634;18.310;2023-08-06T13:22:03;17.80;99.90
12386;DHT22;6257;57.634;18.310;2023-08-06T13:24:32;17.80;99.90
12386;DHT22;6257;57.634;18.310;2023-08-06T13:27:00;17.80;99.90
12386;DHT22;6257;57.634;18.310;2023-08-06T13:29:27;17.80;99.90
12386;DHT22;6257;57.634;18.310;2023-08-06T13:31:56;17.90;99.90
12386;DHT22;6257;57.634;18.310;2023-08-06T13:34:23;17.90;99.90
12386;DHT22;6257;57.634;18.310;2023-08-06T13:36:50;17.90;99.90
12386;DHT22;6257;57.634;18.310;2023-08-06T13:39:17;17.90;99.90
12386;DHT22;6257;57.634;18.310;2023-08-06T13:41:45;17.90;99.90
12386;DHT22;6257;57.634;18.310;2023-08-06T13:44:12;17.90;99.90
12386;DHT22;6257;57.634;18.310;2023-08-06T13:46:41;17.90;99.90
12386;DHT22;6257;57.634;18.310;2023-08-06T13:51:37;17.90;99.90
12386;DHT22;6257;57.634;18.310;2023-08-06T13:54:04;17.90;99.90
12386;DHT22;6257;57.634;18.310;2023-08-06T13:56:32;17.90;99.90
12386;DHT22;6257;57.634;18.310;2023-08-06T13:59:00;18.00;99.90
12386;DHT22;6257;57.634;18.310;2023-08-06T14:01:27;17.90;99.90
12386;DHT22;6257;57.634;18.310;2023-08-06T14:03:54;18.00;99.90
12386;DHT22;6257;57.634;18.310;2023-08-06T14:06:23;18.00;99.90
12386;DHT22;6257;57.634;18.310;2023-08-06T14:08:50;18.00;99.90
12386;DHT22;6257;57.634;18.310;2023-08-06T14:11:17;18.10;99.90
12386;DHT22;6257;57.634;18.310;2023-08-06T14:13:44;18.10;99.90
12386;DHT22;6257;57.634;18.310;2023-08-06T14:16:11;18.10;99.90
12386;DHT22;6257;57.634;18.310;2023-08-06T14:18:38;18.10;99.90
12386;DHT22;6257;57.634;18.310;2023-08-06T14:21:06;18.20;99.90
12386;DHT22;6257;57.634;18.310;2023-08-06T14:23:35;18.20;99.90
12386;DHT22;6257;57.634;18.310;2023-08-06T14:26:02;18.20;99.90
12386;DHT22;6257;57.634;18.310;2023-08-06T14:28:29;18.20;99.90
12386;DHT22;6257;57.634;18.310;2023-08-06T14:30:56;18.20;99.90
12386;DHT22;6257;57.634;18.310;2023-08-06T14:33:23;18.20;99.90
12386;DHT22;6257;57.634;18.310;2023-08-06T14:35:50;18.20;99.90
12386;DHT22;6257;57.634;18.310;2023-08-06T14:38:17;18.30;99.90
12386;DHT22;6257;57.634;18.310;2023-08-06T14:40:45;18.30;99.90
12386;DHT22;6257;57.634;18.310;2023-08-06T14:43:12;18.40;99.90
12386;DHT22;6257;57.634;18.310;2023-08-06T14:45:39;18.40;99.90
12386;DHT22;6257;57.634;18.310;2023-08-06T14:48:07;18.40;99.90
12386;DHT22;6257;57.634;18.310;2023-08-06T14:50:34;18.40;99.90
12386;DHT22;6257;57.634;18.310;2023-08-06T14:53:01;18.50;99.90
12386;DHT22;6257;57.634;18.310;2023-08-06T14:55:28;18.50;99.90
12386;DHT22;6257;57.634;18.310;2023-08-06T14:57:57;18.50;99.90
12386;DHT22;6257;57.634;18.310;2023-08-06T15:00:25;18.50;99.90
12386;DHT22;6257;57.634;18.310;2023-08-06T15:02:52;18.50;99.90
12386;DHT22;6257;57.634;18.310;2023-08-06T15:05:19;18.60;99.90
12386;DHT22;6257;57.634;18.310;2023-08-06T15:07:46;18.60;99.90
12386;DHT22;6257;57.634;18.310;2023-08-06T15:10:14;18.60;99.90
12386;DHT22;6257;57.634;18.310;2023-08-06T15:12:41;18.60;99.90
12386;DHT22;6257;57.634;18.310;2023-08-06T15:17:37;18.60;99.90
12386;DHT22;6257;57.634;18.310;2023-08-06T15:20:06;18.60;99.90
12386;DHT22;6257;57.634;18.310;2023-08-06T15:22:33;18.60;99.90
12386;DHT22;6257;57.634;18.310;2023-08-06T15:25:00;18.70;99.90
12386;DHT22;6257;57.634;18.310;2023-08-06T15:27:27;18.70;99.90
12386;DHT22;6257;57.634;18.310;2023-08-06T15:29:54;18.80;99.90
12386;DHT22;6257;57.634;18.310;2023-08-06T15:32:23;18.80;99.90
12386;DHT22;6257;57.634;18.310;2023-08-06T15:34:50;18.80;99.90
12386;DHT22;6257;57.634;18.310;2023-08-06T15:37:17;18.80;99.90
12386;DHT22;6257;57.634;18.310;2023-08-06T15:39:45;18.80;99.90
12386;DHT22;6257;57.634;18.310;2023-08-06T15:42:12;18.80;99.90
12386;DHT22;6257;57.634;18.310;2023-08-06T15:44:40;18.80;99.90
12386;DHT22;6257;57.634;18.310;2023-08-06T15:47:07;17.70;99.90
12386;DHT22;6257;57.634;18.310;2023-08-06T15:49:36;18.80;99.90
12386;DHT22;6257;57.634;18.310;2023-08-06T15:52:03;18.90;99.90
12386;DHT22;6257;57.634;18.310;2023-08-06T15:54:30;19.00;99.90
12386;DHT22;6257;57.634;18.310;2023-08-06T15:56:57;19.00;99.90
12386;DHT22;6257;57.634;18.310;2023-08-06T15:59:25;19.10;99.90
12386;DHT22;6257;57.634;18.310;2023-08-06T16:01:53;19.10;99.90
12386;DHT22;6257;57.634;18.310;2023-08-06T16:04:20;19.10;99.90
12386;DHT22;6257;57.634;18.310;2023-08-06T16:06:48;19.10;99.90
12386;DHT22;6257;57.634;18.310;2023-08-06T16:09:15;19.10;99.90
12386;DHT22;6257;57.634;18.310;2023-08-06T16:11:43;19.10;99.90
12386;DHT22;6257;57.634;18.310;2023-08-06T16:14:10;19.70;99.90
12386;DHT22;6257;57.634;18.310;2023-08-06T16:16:38;19.20;99.90